sensor_id;sensor_type;location;lat;lon;timestamp;temperature;humidity
5419;DHT22;2732;52.092;11.556;2023-03-14T00:01:32;10.30;99.90
5419;DHT22;2732;52.092;11.556;2023-03-14T00:06:32;10.30;99.90
5419;DHT22;2732;52.092;11.556;2023-03-14T00:11:35;10.30;99.90
5419;DHT22;2732;52.092;11.556;2023-03-14T00:16:36;10.20;99.90
5419;DHT22;2732;52.092;11.556;2023-03-14T00:21:37;10.20;99.90
5419;DHT22;2732;52.092;11.556;2023-03-14T00:26:37;10.20;99.90
5419;DHT22;2732;52.092;11.556;2023-03-14T00:31:38;10.20;99.90
5419;DHT22;2732;52.092;11.556;2023-03-14T00:36:41;10.10;99.90
5419;DHT22;2732;52.092;11.556;2023-03-14T00:41:41;10.10;99.90
5419;DHT22;2732;52.092;11.556;2023-03-14T00:46:43;10.10;99.90
5419;DHT22;2732;52.092;11.556;2023-03-14T00:51:43;10.00;99.90
5419;DHT22;2732;52.092;11.556;2023-03-14T00:56:44;10.00;99.90
5419;DHT22;2732;52.092;11.556;2023-03-14T01:01:44;10.00;99.90
5419;DHT22;2732;52.092;11.556;2023-03-14T01:06:45;10.00;99.90
5419;DHT22;2732;52.092;11.556;2023-03-14T01:11:46;10.00;99.90
5419;DHT22;2732;52.092;11.556;2023-03-14T01:16:46;10.00;99.90
5419;DHT22;2732;52.092;11.556;2023-03-14T01:21:47;10.00;99.90
5419;DHT22;2732;52.092;11.556;2023-03-14T01:26:47;9.90;99.90
5419;DHT22;2732;52.092;11.556;2023-03-14T01:31:48;9.90;99.90
5419;DHT22;2732;52.092;11.556;2023-03-14T01:36:49;9.90;99.90
5419;DHT22;2732;52.092;11.556;2023-03-14T01:41:49;9.90;99.90
5419;DHT22;2732;52.092;11.556;2023-03-14T01:46:50;9.80;99.90
5419;DHT22;2732;52.092;11.556;2023-03-14T01:57:24;9.80;99.90
5419;DHT22;2732;52.092;11.556;2023-03-14T02:02:29;9.80;99.90
5419;DHT22;2732;52.092;11.556;2023-03-14T02:07:49;9.80;99.90
5419;DHT22;2732;52.092;11.556;2023-03-14T02:12:54;9.80;99.90
5419;DHT22;2732;52.092;11.556;2023-03-14T02:17:56;9.70;99.90
5419;DHT22;2732;52.092;11.556;2023-03-14T02:22:58;9.70;99.90
5419;DHT22;2732;52.092;11.556;2023-03-14T02:28:00;9.70;99.90
5419;DHT22;2732;52.092;11.556;2023-03-14T02:33:08;9.70;99.90
5419;DHT22;2732;52.092;11.556;2023-03-14T02:38:36;9.70;99.90
5419;DHT22;2732;52.092;11.556;2023-03-14T02:43:48;9.60;99.90
5419;DHT22;2732;52.092;11.556;2023-03-14T02:49:02;9.60;99.90
5419;DHT22;2732;52.092;11.556;2023-03-14T02:54:05;9.50;99.90
5419;DHT22;2732;52.092;11.556;2023-03-14T02:59:06;9.50;99.90
5419;DHT22;2732;52.092;11.556;2023-03-14T03:04:06;9.50;99.90
5419;DHT22;2732;52.092;11.556;2023-03-14T03:09:07;9.40;99.90
5419;DHT22;2732;52.092;11.556;2023-03-14T03:14:08;9.40;99.90
5419;DHT22;2732;52.092;11.556;2023-03-14T03:19:09;9.40;99.90
5419;DHT22;2732;52.092;11.556;2023-03-14T03:24:09;9.40;99.90
5419;DHT22;2732;52.092;11.556;2023-03-14T03:29:10;9.40;99.90
5419;DHT22;2732;52.092;11.556;2023-03-14T03:34:11;9.40;99.90
5419;DHT22;2732;52.092;11.556;2023-03-14T03:39:13;9.40;99.90
5419;DHT22;2732;52.092;11.556;2023-03-14T03:44:13;9.30;99.90
5419;DHT22;2732;52.092;11.556;2023-03-14T03:49:14;9.30;99.90
5419;DHT22;2732;52.092;11.556;2023-03-14T03:54:14;9.30;99.90
5419;DHT22;2732;52.092;11.556;2023-03-14T03:59:15;9.30;99.90
5419;DHT22;2732;52.092;11.556;2023-03-14T04:04:16;9.20;99.90
5419;DHT22;2732;52.092;11.556;2023-03-14T04:09:16;9.30;99.90
5419;DHT22;2732;52.092;11.556;2023-03-14T04:14:17;9.20;99.90
5419;DHT22;2732;52.092;11.556;2023-03-14T04:19:18;9.20;99.90
5419;DHT22;2732;52.092;11.556;2023-03-14T04:24:18;9.20;99.90
5419;DHT22;2732;52.092;11.556;2023-03-14T04:29:20;9.20;99.90
5419;DHT22;2732;52.092;11.556;2023-03-14T04:34:22;9.20;99.90
5419;DHT22;2732;52.092;11.556;2023-03-14T04:39:23;9.20;99.90
5419;DHT22;2732;52.092;11.556;2023-03-14T04:44:23;9.20;99.90
5419;DHT22;2732;52.092;11.556;2023-03-14T04:49:24;9.20;99.90
5419;DHT22;2732;52.092;11.556;2023-03-14T04:54:25;9.20;99.90
5419;DHT22;2732;52.092;11.556;2023-03-14T04:59:25;9.30;99.90
5419;DHT22;2732;52.092;11.556;2023-03-14T05:04:26;9.30;99.90
5419;DHT22;2732;52.092;11.556;2023-03-14T05:09:27;9.30;99.90
5419;DHT22;2732;52.092;11.556;2023-03-14T05:14:27;9.40;99.90
5419;DHT22;2732;52.092;11.556;2023-03-14T05:19:28;9.40;99.90
5419;DHT22;2732;52.092;11.556;2023-03-14T05:24:29;9.40;99.90
5419;DHT22;2732;52.092;11.556;2023-03-14T05:29:30;9.30;99.90
5419;DHT22;2732;52.092;11.556;2023-03-14T05:34:30;9.40;99.90
5419;DHT22;2732;52.092;11.556;2023-03-14T05:39:31;9.40;99.90
5419;DHT22;2732;52.092;11.556;2023-03-14T05:44:32;9.40;99.90
5419;DHT22;2732;52.092;11.556;2023-03-14T05:49:32;9.40;99.90
5419;DHT22;2732;52.092;11.556;2023-03-14T05:54:33;9.40;99.90
5419;DHT22;2732;52.092;11.556;2023-03-14T05:59:34;9.40;99.90
5419;DHT22;2732;52.092;11.556;2023-03-14T06:04:34;9.40;99.90
5419;DHT22;2732;52.092;11.556;2023-03-14T06:09:35;9.40;99.90
5419;DHT22;2732;52.092;11.556;2023-03-14T06:14:36;9.40;99.90
5419;DHT22;2732;52.092;11.556;2023-03-14T06:19:36;9.40;99.90
5419;DHT22;2732;52.092;11.556;2023-03-14T06:24:37;9.40;99.90
5419;DHT22;2732;52.092;11.556;2023-03-14T06:29:37;9.50;99.90
5419;DHT22;2732;52.092;11.556;2023-03-14T06:34:38;9.50;99.90
5419;DHT22;2732;52.092;11.556;2023-03-14T06:39:39;9.50;99.90
5419;DHT22;2732;52.092;11.556;2023-03-14T06:44:42;9.50;99.90
5419;DHT22;2732;52.092;11.556;2023-03-14T06:49:42;9.60;99.90
5419;DHT22;2732;52.092;11.556;2023-03-14T06:54:43;9.60;99.90
5419;DHT22;2732;52.092;11.556;2023-03-14T06:59:44;9.60;99.90
5419;DHT22;2732;52.092;11.556;2023-03-14T07:04:45;9.70;99.90
5419;DHT22;2732;52.092;11.556;2023-03-14T07:09:46;9.70;99.90
5419;DHT22;2732;52.092;11.556;2023-03-14T07:14:47;9.80;99.90
5419;DHT22;2732;52.092;11.556;2023-03-14T07:19:48;9.90;99.90
5419;DHT22;2732;52.092;11.556;2023-03-14T07:24:48;10.00;99.90
5419;DHT22;2732;52.092;11.556;2023-03-14T07:29:49;10.10;99.90
5419;DHT22;2732;52.092;11.556;2023-03-14T07:34:49;10.00;99.90
5419;DHT22;2732;52.092;11.556;2023-03-14T07:39:50;10.00;99.90
5419;DHT22;2732;52.092;11.556;2023-03-14T07:44:50;10.00;99.90
5419;DHT22;2732;52.092;11.556;2023-03-14T07:49:51;10.00;99.90
5419;DHT22;2732;52.092;11.556;2023-03-14T07:54:52;10.10;99.90
5419;DHT22;2732;52.092;11.556;2023-03-14T08:47:52;12.30;99.90
5419;DHT22;2732;52.092;11.556;2023-03-14T08:59:08;12.80;99.90
5419;DHT22;2732;52.092;11.556;2023-03-14T09:16:43;14.10;99.90
5419;DHT22;2732;52.092;11.556;2023-03-14T09:53:26;14.60;99.90
5419;DHT22;2732;52.092;11.556;2023-03-14T09:58:29;14.60;99.90
5419;DHT22;2732;52.092;11.556;2023-03-14T10:03:35;14.80;99.90
5419;DHT22;2732;52.092;11.556;2023-03-14T10:08:35;14.80;99.90
5419;DHT22;2732;52.092;11.556;2023-03-14T11:11:26;14.70;99.90
5419;DHT22;2732;52.092;11.556;2023-03-14T11:16:51;14.60;99.90
5419;DHT22;2732;52.092;11.556;2023-03-14T11:21:59;14.60;99.90
5419;DHT22;2732;52.092;11.556;2023-03-14T11:33:33;14.90;99.90
5419;DHT22;2732;52.092;11.556;2023-03-14T11:38:49;15.10;99.90
5419;DHT22;2732;52.092;11.556;2023-03-14T11:43:58;15.30;99.90
5419;DHT22;2732;52.092;11.556;2023-03-14T12:27:05;16.40;99.90
5419;DHT22;2732;52.092;11.556;2023-03-14T12:38:45;17.40;99.90
5419;DHT22;2732;52.092;11.556;2023-03-14T12:43:49;17.70;99.90
5419;DHT22;2732;52.092;11.556;2023-03-14T13:01:23;16.50;99.90
5419;DHT22;2732;52.092;11.556;2023-03-14T13:06:46;16.20;99.90
5419;DHT22;2732;52.092;11.556;2023-03-14T13:12:29;15.80;99.90
5419;DHT22;2732;52.092;11.556;2023-03-14T13:17:32;15.60;99.90
5419;DHT22;2732;52.092;11.556;2023-03-14T13:22:34;15.40;99.90
5419;DHT22;2732;52.092;11.556;2023-03-14T13:27:37;15.30;99.90
5419;DHT22;2732;52.092;11.556;2023-03-14T13:32:42;15.20;99.90
5419;DHT22;2732;52.092;11.556;2023-03-14T13:37:45;15.10;99.90
5419;DHT22;2732;52.092;11.556;2023-03-14T13:42:45;14.30;99.90
5419;DHT22;2732;52.092;11.556;2023-03-14T13:47:46;13.20;99.90
5419;DHT22;2732;52.092;11.556;2023-03-14T13:52:57;12.50;99.90
5419;DHT22;2732;52.092;11.556;2023-03-14T13:57:58;11.90;99.90
5419;DHT22;2732;52.092;11.556;2023-03-14T14:02:59;11.50;99.90
5419;DHT22;2732;52.092;11.556;2023-03-14T14:08:03;11.00;99.90
5419;DHT22;2732;52.092;11.556;2023-03-14T14:13:06;10.80;99.90
5419;DHT22;2732;52.092;11.556;2023-03-14T14:18:13;10.50;99.90
5419;DHT22;2732;52.092;11.556;2023-03-14T14:23:20;10.20;99.90
5419;DHT22;2732;52.092;11.556;2023-03-14T14:28:34;9.70;99.90
5419;DHT22;2732;52.092;11.556;2023-03-14T14:33:43;9.40;99.90
5419;DHT22;2732;52.092;11.556;2023-03-14T14:38:50;9.00;99.90
5419;DHT22;2732;52.092;11.556;2023-03-14T14:43:55;8.50;99.90
5419;DHT22;2732;52.092;11.556;2023-03-14T14:49:01;8.30;99.90
5419;DHT22;2732;52.092;11.556;2023-03-14T14:54:13;7.90;99.90
5419;DHT22;2732;52.092;11.556;2023-03-14T14:59:28;7.70;99.90
5419;DHT22;2732;52.092;11.556;2023-03-14T15:04:32;7.40;99.90
5419;DHT22;2732;52.092;11.556;2023-03-14T15:09:33;7.20;99.90
5419;DHT22;2732;52.092;11.556;2023-03-14T15:14:33;7.10;99.90
5419;DHT22;2732;52.092;11.556;2023-03-14T15:19:34;6.90;99.90
5419;DHT22;2732;52.092;11.556;2023-03-14T15:24:34;6.60;99.90
5419;DHT22;2732;52.092;11.556;2023-03-14T15:29:35;6.40;99.90
5419;DHT22;2732;52.092;11.556;2023-03-14T15:34:37;6.20;99.90
5419;DHT22;2732;52.092;11.556;2023-03-14T15:39:37;6.10;99.90
5419;DHT22;2732;52.092;11.556;2023-03-14T15:44:39;5.90;99.90
5419;DHT22;2732;52.092;11.556;2023-03-14T15:49:39;5.90;99.90
5419;DHT22;2732;52.092;11.556;2023-03-14T15:54:40;5.80;99.90
5419;DHT22;2732;52.092;11.556;2023-03-14T15:59:43;5.70;99.90
5419;DHT22;2732;52.092;11.556;2023-03-14T16:04:43;5.70;99.90
5419;DHT22;2732;52.092;11.556;2023-03-14T16:09:44;5.60;99.90
5419;DHT22;2732;52.092;11.556;2023-03-14T16:14:47;5.60;99.90
5419;DHT22;2732;52.092;11.556;2023-03-14T16:19:48;5.50;99.90
5419;DHT22;2732;52.092;11.556;2023-03-14T16:24:48;5.40;99.90
5419;DHT22;2732;52.092;11.556;2023-03-14T16:29:49;5.40;99.90
5419;DHT22;2732;52.092;11.556;2023-03-14T16:34:50;5.30;99.90
5419;DHT22;2732;52.092;11.556;2023-03-14T16:39:51;5.30;99.90
5419;DHT22;2732;52.092;11.556;2023-03-14T16:44:52;5.30;99.90
5419;DHT22;2732;52.092;11.556;2023-03-14T16:49:52;5.30;99.90
5419;DHT22;2732;52.092;11.556;2023-03-14T16:54:54;5.30;99.90
5419;DHT22;2732;52.092;11.556;2023-03-14T16:59:55;5.20;99.90
5419;DHT22;2732;52.092;11.556;2023-03-14T17:04:55;5.20;99.90
5419;DHT22;2732;52.092;11.556;2023-03-14T17:09:56;5.10;99.90
5419;DHT22;2732;52.092;11.556;2023-03-14T17:14:58;5.00;99.90
5419;DHT22;2732;52.092;11.556;2023-03-14T17:19:59;5.00;99.90
5419;DHT22;2732;52.092;11.556;2023-03-14T17:25:00;5.00;99.90
5419;DHT22;2732;52.092;11.556;2023-03-14T17:30:03;4.90;99.90
5419;DHT22;2732;52.092;11.556;2023-03-14T17:35:05;4.90;99.90
5419;DHT22;2732;52.092;11.556;2023-03-14T17:40:06;4.80;99.90
5419;DHT22;2732;52.092;11.556;2023-03-14T17:45:08;4.70;99.90
5419;DHT22;2732;52.092;11.556;2023-03-14T17:50:10;4.70;99.90
5419;DHT22;2732;52.092;11.556;2023-03-14T17:55:13;4.60;99.90
5419;DHT22;2732;52.092;11.556;2023-03-14T18:00:14;4.60;99.90
5419;DHT22;2732;52.092;11.556;2023-03-14T18:05:16;4.50;99.90
5419;DHT22;2732;52.092;11.556;2023-03-14T18:10:17;4.40;99.90
5419;DHT22;2732;52.092;11.556;2023-03-14T18:15:19;4.40;99.90
5419;DHT22;2732;52.092;11.556;2023-03-14T18:20:20;4.30;99.90
5419;DHT22;2732;52.092;11.556;2023-03-14T18:25:22;4.30;99.90
5419;DHT22;2732;52.092;11.556;2023-03-14T18:30:23;4.20;99.90
5419;DHT22;2732;52.092;11.556;2023-03-14T18:35:24;4.10;99.90
5419;DHT22;2732;52.092;11.556;2023-03-14T18:40:25;4.00;99.90
5419;DHT22;2732;52.092;11.556;2023-03-14T18:45:26;4.00;99.90
5419;DHT22;2732;52.092;11.556;2023-03-14T18:50:26;4.00;99.90
5419;DHT22;2732;52.092;11.556;2023-03-14T18:55:27;3.90;99.90
5419;DHT22;2732;52.092;11.556;2023-03-14T19:00:28;3.90;99.90
5419;DHT22;2732;52.092;11.556;2023-03-14T19:05:29;3.80;99.90
5419;DHT22;2732;52.092;11.556;2023-03-14T19:10:30;3.80;99.90
5419;DHT22;2732;52.092;11.556;2023-03-14T19:15:32;3.70;99.90
5419;DHT22;2732;52.092;11.556;2023-03-14T19:20:33;3.60;99.90
5419;DHT22;2732;52.092;11.556;2023-03-14T19:25:34;3.50;99.90
5419;DHT22;2732;52.092;11.556;2023-03-14T19:30:35;3.50;99.90
5419;DHT22;2732;52.092;11.556;2023-03-14T19:35:35;3.40;99.90
5419;DHT22;2732;52.092;11.556;2023-03-14T19:40:38;3.40;99.90
5419;DHT22;2732;52.092;11.556;2023-03-14T19:45:40;3.30;99.90
5419;DHT22;2732;52.092;11.556;2023-03-14T19:50:43;3.20;99.90
5419;DHT22;2732;52.092;11.556;2023-03-14T19:55:44;3.20;99.90
5419;DHT22;2732;52.092;11.556;2023-03-14T20:00:46;3.10;99.90
5419;DHT22;2732;52.092;11.556;2023-03-14T20:05:47;3.00;99.90
5419;DHT22;2732;52.092;11.556;2023-03-14T20:10:48;3.00;99.90
5419;DHT22;2732;52.092;11.556;2023-03-14T20:15:50;2.90;99.90
5419;DHT22;2732;52.092;11.556;2023-03-14T20:20:54;2.90;99.90
5419;DHT22;2732;52.092;11.556;2023-03-14T20:25:56;2.80;99.90
5419;DHT22;2732;52.092;11.556;2023-03-14T20:30:59;2.70;99.90
5419;DHT22;2732;52.092;11.556;2023-03-14T20:36:00;2.70;99.90
5419;DHT22;2732;52.092;11.556;2023-03-14T20:41:03;2.60;99.90
5419;DHT22;2732;52.092;11.556;2023-03-14T20:46:05;2.50;99.90
5419;DHT22;2732;52.092;11.556;2023-03-14T20:51:06;2.50;99.90
5419;DHT22;2732;52.092;11.556;2023-03-14T20:56:08;2.50;99.90
5419;DHT22;2732;52.092;11.556;2023-03-14T21:01:11;2.50;99.90
5419;DHT22;2732;52.092;11.556;2023-03-14T21:06:12;2.40;99.90
5419;DHT22;2732;52.092;11.556;2023-03-14T21:11:13;2.40;99.90
5419;DHT22;2732;52.092;11.556;2023-03-14T21:16:13;2.40;99.90
5419;DHT22;2732;52.092;11.556;2023-03-14T21:21:14;2.40;99.90
5419;DHT22;2732;52.092;11.556;2023-03-14T21:26:15;2.40;99.90
5419;DHT22;2732;52.092;11.556;2023-03-14T21:31:15;2.30;99.90
5419;DHT22;2732;52.092;11.556;2023-03-14T21:36:16;2.30;99.90
5419;DHT22;2732;52.092;11.556;2023-03-14T21:41:18;2.30;99.90
5419;DHT22;2732;52.092;11.556;2023-03-14T21:46:19;2.30;99.90
5419;DHT22;2732;52.092;11.556;2023-03-14T21:51:20;2.20;99.90
5419;DHT22;2732;52.092;11.556;2023-03-14T21:56:20;2.20;99.90
5419;DHT22;2732;52.092;11.556;2023-03-14T22:01:22;2.20;99.90
5419;DHT22;2732;52.092;11.556;2023-03-14T22:06:24;2.10;99.90
5419;DHT22;2732;52.092;11.556;2023-03-14T22:11:24;2.10;99.90
5419;DHT22;2732;52.092;11.556;2023-03-14T22:16:26;2.10;99.90
5419;DHT22;2732;52.092;11.556;2023-03-14T22:21:26;2.00;99.90
5419;DHT22;2732;52.092;11.556;2023-03-14T22:26:27;2.00;99.90
5419;DHT22;2732;52.092;11.556;2023-03-14T22:31:27;2.00;99.90
5419;DHT22;2732;52.092;11.556;2023-03-14T22:36:28;2.00;99.90
5419;DHT22;2732;52.092;11.556;2023-03-14T22:41:29;1.90;99.90
5419;DHT22;2732;52.092;11.556;2023-03-14T22:46:29;1.90;99.90
5419;DHT22;2732;52.092;11.556;2023-03-14T22:51:30;1.90;99.90
5419;DHT22;2732;52.092;11.556;2023-03-14T22:56:30;1.80;99.90
5419;DHT22;2732;52.092;11.556;2023-03-14T23:01:31;1.80;99.90
5419;DHT22;2732;52.092;11.556;2023-03-14T23:06:32;1.80;99.90
5419;DHT22;2732;52.092;11.556;2023-03-14T23:11:32;1.80;99.90
5419;DHT22;2732;52.092;11.556;2023-03-14T23:16:34;1.80;99.90
5419;DHT22;2732;52.092;11.556;2023-03-14T23:21:35;1.80;99.90
5419;DHT22;2732;52.092;11.556;2023-03-14T23:26:36;1.80;99.90
5419;DHT22;2732;52.092;11.556;2023-03-14T23:31:37;1.70;99.90
5419;DHT22;2732;52.092;11.556;2023-03-14T23:36:37;1.70;99.90
5419;DHT22;2732;52.092;11.556;2023-03-14T23:41:38;1.70;99.90
5419;DHT22;2732;52.092;11.556;2023-03-14T23:46:39;1.70;99.90
5419;DHT22;2732;52.092;11.556;2023-03-14T23:51:40;1.70;99.90
5419;DHT22;2732;52.092;11.556;2023-03-14T23:56:40;1.70;99.90
